sensor_id;sensor_type;location;lat;lon;timestamp;P1;durP1;ratioP1;P2;durP2;ratioP2
74634;SDS011;63140;56.306;43.984;2022-08-30T00:01:12;11.77;;;7.20;;
74634;SDS011;63140;56.306;43.984;2022-08-30T00:03:45;12.32;;;7.20;;
74634;SDS011;63140;56.306;43.984;2022-08-30T00:06:12;13.85;;;7.30;;
74634;SDS011;63140;56.306;43.984;2022-08-30T00:08:40;15.02;;;6.90;;
74634;SDS011;63140;56.306;43.984;2022-08-30T00:11:08;10.67;;;6.43;;
74634;SDS011;63140;56.306;43.984;2022-08-30T00:13:36;15.27;;;8.00;;
74634;SDS011;63140;56.306;43.984;2022-08-30T00:16:03;13.05;;;7.13;;
74634;SDS011;63140;56.306;43.984;2022-08-30T00:18:31;14.32;;;8.05;;
74634;SDS011;63140;56.306;43.984;2022-08-30T00:20:58;13.85;;;8.00;;
74634;SDS011;63140;56.306;43.984;2022-08-30T00:23:24;10.90;;;7.38;;
74634;SDS011;63140;56.306;43.984;2022-08-30T00:25:50;11.40;;;8.23;;
74634;SDS011;63140;56.306;43.984;2022-08-30T00:28:17;11.60;;;7.07;;
74634;SDS011;63140;56.306;43.984;2022-08-30T00:30:43;14.50;;;7.57;;
74634;SDS011;63140;56.306;43.984;2022-08-30T00:33:10;11.18;;;7.32;;
74634;SDS011;63140;56.306;43.984;2022-08-30T00:35:38;13.43;;;7.83;;
74634;SDS011;63140;56.306;43.984;2022-08-30T00:38:07;14.33;;;7.37;;
74634;SDS011;63140;56.306;43.984;2022-08-30T00:40:34;10.90;;;7.10;;
74634;SDS011;63140;56.306;43.984;2022-08-30T00:43:01;11.07;;;7.00;;
74634;SDS011;63140;56.306;43.984;2022-08-30T00:45:32;16.55;;;7.35;;
74634;SDS011;63140;56.306;43.984;2022-08-30T00:48:00;13.85;;;8.23;;
74634;SDS011;63140;56.306;43.984;2022-08-30T00:50:27;11.15;;;6.80;;
74634;SDS011;63140;56.306;43.984;2022-08-30T00:52:59;11.98;;;7.45;;
74634;SDS011;63140;56.306;43.984;2022-08-30T00:55:28;11.45;;;7.40;;
74634;SDS011;63140;56.306;43.984;2022-08-30T00:57:55;12.07;;;6.77;;
74634;SDS011;63140;56.306;43.984;2022-08-30T01:00:26;13.60;;;7.63;;
74634;SDS011;63140;56.306;43.984;2022-08-30T01:02:52;13.07;;;7.20;;
74634;SDS011;63140;56.306;43.984;2022-08-30T01:05:18;12.35;;;8.05;;
74634;SDS011;63140;56.306;43.984;2022-08-30T01:07:45;13.50;;;7.47;;
74634;SDS011;63140;56.306;43.984;2022-08-30T01:10:12;14.05;;;7.82;;
74634;SDS011;63140;56.306;43.984;2022-08-30T01:12:39;14.10;;;8.13;;
74634;SDS011;63140;56.306;43.984;2022-08-30T01:15:06;11.83;;;7.60;;
74634;SDS011;63140;56.306;43.984;2022-08-30T01:17:33;14.63;;;7.90;;
74634;SDS011;63140;56.306;43.984;2022-08-30T01:20:07;11.88;;;7.57;;
74634;SDS011;63140;56.306;43.984;2022-08-30T01:25:17;12.65;;;8.05;;
74634;SDS011;63140;56.306;43.984;2022-08-30T01:27:48;11.93;;;7.15;;
74634;SDS011;63140;56.306;43.984;2022-08-30T01:30:18;13.55;;;7.55;;
74634;SDS011;63140;56.306;43.984;2022-08-30T01:32:44;12.43;;;7.97;;
74634;SDS011;63140;56.306;43.984;2022-08-30T01:35:13;11.73;;;7.57;;
74634;SDS011;63140;56.306;43.984;2022-08-30T01:37:42;12.97;;;7.40;;
74634;SDS011;63140;56.306;43.984;2022-08-30T01:40:09;11.63;;;7.20;;
74634;SDS011;63140;56.306;43.984;2022-08-30T01:42:38;14.10;;;7.25;;
74634;SDS011;63140;56.306;43.984;2022-08-30T01:45:04;12.13;;;7.78;;
74634;SDS011;63140;56.306;43.984;2022-08-30T01:47:31;13.45;;;7.50;;
74634;SDS011;63140;56.306;43.984;2022-08-30T01:49:57;12.95;;;7.47;;
74634;SDS011;63140;56.306;43.984;2022-08-30T01:52:24;12.05;;;7.95;;
74634;SDS011;63140;56.306;43.984;2022-08-30T01:54:50;16.80;;;8.38;;
74634;SDS011;63140;56.306;43.984;2022-08-30T01:57:18;12.37;;;8.20;;
74634;SDS011;63140;56.306;43.984;2022-08-30T01:59:45;12.40;;;8.17;;
74634;SDS011;63140;56.306;43.984;2022-08-30T02:02:12;12.07;;;8.60;;
74634;SDS011;63140;56.306;43.984;2022-08-30T02:04:40;11.50;;;8.23;;
74634;SDS011;63140;56.306;43.984;2022-08-30T02:07:07;13.70;;;7.90;;
74634;SDS011;63140;56.306;43.984;2022-08-30T02:09:33;13.32;;;8.05;;
74634;SDS011;63140;56.306;43.984;2022-08-30T02:11:59;11.52;;;7.85;;
74634;SDS011;63140;56.306;43.984;2022-08-30T02:14:25;12.77;;;7.80;;
74634;SDS011;63140;56.306;43.984;2022-08-30T02:16:51;11.80;;;8.27;;
74634;SDS011;63140;56.306;43.984;2022-08-30T02:19:17;13.60;;;9.10;;
74634;SDS011;63140;56.306;43.984;2022-08-30T02:21:43;18.08;;;9.35;;
74634;SDS011;63140;56.306;43.984;2022-08-30T02:24:09;15.40;;;8.70;;
74634;SDS011;63140;56.306;43.984;2022-08-30T02:26:35;15.27;;;7.50;;
74634;SDS011;63140;56.306;43.984;2022-08-30T02:29:01;12.85;;;7.95;;
74634;SDS011;63140;56.306;43.984;2022-08-30T02:31:29;16.33;;;7.93;;
74634;SDS011;63140;56.306;43.984;2022-08-30T02:33:55;12.38;;;7.90;;
74634;SDS011;63140;56.306;43.984;2022-08-30T02:36:22;11.77;;;7.85;;
74634;SDS011;63140;56.306;43.984;2022-08-30T02:38:48;10.85;;;7.90;;
74634;SDS011;63140;56.306;43.984;2022-08-30T02:41:15;14.35;;;8.52;;
74634;SDS011;63140;56.306;43.984;2022-08-30T02:43:42;14.63;;;7.63;;
74634;SDS011;63140;56.306;43.984;2022-08-30T02:46:08;16.13;;;8.00;;
74634;SDS011;63140;56.306;43.984;2022-08-30T02:48:34;14.50;;;8.50;;
74634;SDS011;63140;56.306;43.984;2022-08-30T02:51:10;10.68;;;8.27;;
74634;SDS011;63140;56.306;43.984;2022-08-30T02:53:38;14.88;;;8.38;;
74634;SDS011;63140;56.306;43.984;2022-08-30T02:56:06;17.33;;;8.23;;
74634;SDS011;63140;56.306;43.984;2022-08-30T02:58:32;15.82;;;8.32;;
74634;SDS011;63140;56.306;43.984;2022-08-30T03:00:59;12.85;;;7.88;;
74634;SDS011;63140;56.306;43.984;2022-08-30T03:03:25;14.55;;;8.35;;
74634;SDS011;63140;56.306;43.984;2022-08-30T03:05:51;14.33;;;8.47;;
74634;SDS011;63140;56.306;43.984;2022-08-30T03:08:17;16.55;;;8.70;;
74634;SDS011;63140;56.306;43.984;2022-08-30T03:10:43;14.17;;;8.90;;
74634;SDS011;63140;56.306;43.984;2022-08-30T03:13:09;15.35;;;8.20;;
74634;SDS011;63140;56.306;43.984;2022-08-30T03:15:36;16.00;;;8.10;;
74634;SDS011;63140;56.306;43.984;2022-08-30T03:18:03;14.38;;;8.05;;
74634;SDS011;63140;56.306;43.984;2022-08-30T03:20:29;13.47;;;8.70;;
74634;SDS011;63140;56.306;43.984;2022-08-30T03:22:55;23.63;;;8.85;;
74634;SDS011;63140;56.306;43.984;2022-08-30T03:25:21;22.98;;;10.45;;
74634;SDS011;63140;56.306;43.984;2022-08-30T03:27:47;24.23;;;9.40;;
74634;SDS011;63140;56.306;43.984;2022-08-30T03:30:15;19.38;;;8.85;;
74634;SDS011;63140;56.306;43.984;2022-08-30T03:32:43;16.27;;;8.13;;
74634;SDS011;63140;56.306;43.984;2022-08-30T03:35:09;19.98;;;8.07;;
74634;SDS011;63140;56.306;43.984;2022-08-30T03:37:35;12.93;;;7.22;;
74634;SDS011;63140;56.306;43.984;2022-08-30T03:40:02;13.20;;;7.68;;
74634;SDS011;63140;56.306;43.984;2022-08-30T03:42:31;15.98;;;7.05;;
74634;SDS011;63140;56.306;43.984;2022-08-30T03:44:57;13.07;;;6.43;;
74634;SDS011;63140;56.306;43.984;2022-08-30T03:47:23;19.55;;;7.10;;
74634;SDS011;63140;56.306;43.984;2022-08-30T03:49:49;21.48;;;7.97;;
74634;SDS011;63140;56.306;43.984;2022-08-30T03:52:14;39.70;;;9.43;;
74634;SDS011;63140;56.306;43.984;2022-08-30T03:54:40;19.83;;;7.70;;
74634;SDS011;63140;56.306;43.984;2022-08-30T03:57:06;20.92;;;7.30;;
74634;SDS011;63140;56.306;43.984;2022-08-30T03:59:32;12.37;;;6.80;;
74634;SDS011;63140;56.306;43.984;2022-08-30T04:01:58;17.13;;;7.65;;
74634;SDS011;63140;56.306;43.984;2022-08-30T04:04:23;12.52;;;7.20;;
74634;SDS011;63140;56.306;43.984;2022-08-30T04:06:50;12.40;;;6.77;;
74634;SDS011;63140;56.306;43.984;2022-08-30T04:09:16;15.00;;;7.93;;
74634;SDS011;63140;56.306;43.984;2022-08-30T04:11:42;12.85;;;7.68;;
74634;SDS011;63140;56.306;43.984;2022-08-30T04:14:08;15.32;;;7.93;;
74634;SDS011;63140;56.306;43.984;2022-08-30T04:16:34;20.95;;;8.20;;
74634;SDS011;63140;56.306;43.984;2022-08-30T04:19:00;14.27;;;7.63;;
74634;SDS011;63140;56.306;43.984;2022-08-30T04:21:26;13.23;;;7.30;;
74634;SDS011;63140;56.306;43.984;2022-08-30T04:23:52;14.80;;;8.13;;
74634;SDS011;63140;56.306;43.984;2022-08-30T04:26:18;19.90;;;9.68;;
74634;SDS011;63140;56.306;43.984;2022-08-30T04:28:44;23.30;;;9.90;;
74634;SDS011;63140;56.306;43.984;2022-08-30T04:31:12;20.50;;;10.43;;
74634;SDS011;63140;56.306;43.984;2022-08-30T04:33:39;14.38;;;7.68;;
74634;SDS011;63140;56.306;43.984;2022-08-30T04:36:06;13.95;;;7.50;;
74634;SDS011;63140;56.306;43.984;2022-08-30T04:38:34;16.60;;;7.70;;
74634;SDS011;63140;56.306;43.984;2022-08-30T04:41:01;17.20;;;8.60;;
74634;SDS011;63140;56.306;43.984;2022-08-30T04:43:28;15.88;;;8.38;;
74634;SDS011;63140;56.306;43.984;2022-08-30T04:45:54;22.77;;;8.70;;
74634;SDS011;63140;56.306;43.984;2022-08-30T04:48:21;22.80;;;8.63;;
74634;SDS011;63140;56.306;43.984;2022-08-30T04:50:47;18.30;;;8.00;;
74634;SDS011;63140;56.306;43.984;2022-08-30T04:53:14;19.25;;;8.35;;
74634;SDS011;63140;56.306;43.984;2022-08-30T04:55:40;16.65;;;8.45;;
74634;SDS011;63140;56.306;43.984;2022-08-30T04:58:08;17.15;;;8.60;;
74634;SDS011;63140;56.306;43.984;2022-08-30T05:00:35;14.32;;;8.00;;
74634;SDS011;63140;56.306;43.984;2022-08-30T05:03:01;15.27;;;6.83;;
74634;SDS011;63140;56.306;43.984;2022-08-30T05:05:28;17.97;;;7.27;;
74634;SDS011;63140;56.306;43.984;2022-08-30T05:08:10;14.40;;;6.40;;
74634;SDS011;63140;56.306;43.984;2022-08-30T05:10:39;20.85;;;7.40;;
74634;SDS011;63140;56.306;43.984;2022-08-30T05:13:10;21.80;;;7.60;;
74634;SDS011;63140;56.306;43.984;2022-08-30T05:15:37;16.20;;;7.20;;
74634;SDS011;63140;56.306;43.984;2022-08-30T05:18:05;17.23;;;7.50;;
74634;SDS011;63140;56.306;43.984;2022-08-30T05:20:32;17.42;;;7.70;;
74634;SDS011;63140;56.306;43.984;2022-08-30T05:23:00;18.38;;;8.20;;
74634;SDS011;63140;56.306;43.984;2022-08-30T05:25:27;19.63;;;7.07;;
74634;SDS011;63140;56.306;43.984;2022-08-30T05:27:56;20.53;;;7.07;;
74634;SDS011;63140;56.306;43.984;2022-08-30T05:30:23;26.07;;;7.80;;
74634;SDS011;63140;56.306;43.984;2022-08-30T05:32:50;17.40;;;8.13;;
74634;SDS011;63140;56.306;43.984;2022-08-30T05:35:16;19.58;;;6.95;;
74634;SDS011;63140;56.306;43.984;2022-08-30T05:38:01;15.95;;;7.00;;
74634;SDS011;63140;56.306;43.984;2022-08-30T05:40:27;22.17;;;7.57;;
74634;SDS011;63140;56.306;43.984;2022-08-30T05:42:53;16.87;;;7.67;;
74634;SDS011;63140;56.306;43.984;2022-08-30T05:45:19;21.20;;;7.25;;
74634;SDS011;63140;56.306;43.984;2022-08-30T05:47:45;23.05;;;8.32;;
74634;SDS011;63140;56.306;43.984;2022-08-30T05:50:12;16.92;;;8.38;;
74634;SDS011;63140;56.306;43.984;2022-08-30T05:52:38;28.00;;;8.40;;
74634;SDS011;63140;56.306;43.984;2022-08-30T05:55:06;20.10;;;9.20;;
74634;SDS011;63140;56.306;43.984;2022-08-30T05:57:34;24.25;;;9.55;;
74634;SDS011;63140;56.306;43.984;2022-08-30T06:00:04;20.73;;;9.02;;
74634;SDS011;63140;56.306;43.984;2022-08-30T06:02:37;23.60;;;9.23;;
74634;SDS011;63140;56.306;43.984;2022-08-30T06:05:03;20.42;;;7.93;;
74634;SDS011;63140;56.306;43.984;2022-08-30T06:07:30;14.35;;;6.72;;
74634;SDS011;63140;56.306;43.984;2022-08-30T06:09:55;17.08;;;7.40;;
74634;SDS011;63140;56.306;43.984;2022-08-30T06:12:21;19.60;;;7.47;;
74634;SDS011;63140;56.306;43.984;2022-08-30T06:14:47;15.97;;;7.77;;
74634;SDS011;63140;56.306;43.984;2022-08-30T06:17:13;19.77;;;8.93;;
74634;SDS011;63140;56.306;43.984;2022-08-30T06:19:45;23.33;;;11.20;;
74634;SDS011;63140;56.306;43.984;2022-08-30T06:22:10;25.05;;;13.32;;
74634;SDS011;63140;56.306;43.984;2022-08-30T06:24:37;31.17;;;14.48;;
74634;SDS011;63140;56.306;43.984;2022-08-30T06:27:03;29.92;;;14.45;;
74634;SDS011;63140;56.306;43.984;2022-08-30T06:29:29;31.52;;;15.70;;
74634;SDS011;63140;56.306;43.984;2022-08-30T06:31:56;35.77;;;18.67;;
74634;SDS011;63140;56.306;43.984;2022-08-30T06:34:23;38.22;;;18.83;;
74634;SDS011;63140;56.306;43.984;2022-08-30T06:36:49;36.40;;;21.13;;
74634;SDS011;63140;56.306;43.984;2022-08-30T06:39:14;36.20;;;20.13;;
74634;SDS011;63140;56.306;43.984;2022-08-30T06:41:40;39.10;;;21.67;;
74634;SDS011;63140;56.306;43.984;2022-08-30T06:44:25;40.45;;;22.65;;
74634;SDS011;63140;56.306;43.984;2022-08-30T06:46:51;43.33;;;24.38;;
74634;SDS011;63140;56.306;43.984;2022-08-30T06:49:17;40.78;;;22.27;;
74634;SDS011;63140;56.306;43.984;2022-08-30T06:51:43;38.47;;;23.38;;
74634;SDS011;63140;56.306;43.984;2022-08-30T06:54:09;31.60;;;16.63;;
74634;SDS011;63140;56.306;43.984;2022-08-30T06:56:35;41.97;;;21.20;;
74634;SDS011;63140;56.306;43.984;2022-08-30T06:59:01;36.03;;;21.15;;
74634;SDS011;63140;56.306;43.984;2022-08-30T07:01:27;32.47;;;18.08;;
74634;SDS011;63140;56.306;43.984;2022-08-30T07:03:54;31.50;;;17.30;;
74634;SDS011;63140;56.306;43.984;2022-08-30T07:06:22;29.52;;;17.30;;
74634;SDS011;63140;56.306;43.984;2022-08-30T07:08:49;31.45;;;16.83;;
74634;SDS011;63140;56.306;43.984;2022-08-30T07:11:23;33.80;;;16.93;;
74634;SDS011;63140;56.306;43.984;2022-08-30T07:13:50;33.43;;;17.17;;
74634;SDS011;63140;56.306;43.984;2022-08-30T07:16:16;31.25;;;17.13;;
74634;SDS011;63140;56.306;43.984;2022-08-30T07:18:42;35.90;;;17.67;;
74634;SDS011;63140;56.306;43.984;2022-08-30T07:21:25;33.03;;;16.23;;
74634;SDS011;63140;56.306;43.984;2022-08-30T07:23:59;32.87;;;17.47;;
74634;SDS011;63140;56.306;43.984;2022-08-30T07:26:28;37.05;;;21.92;;
74634;SDS011;63140;56.306;43.984;2022-08-30T07:29:16;33.70;;;19.40;;
74634;SDS011;63140;56.306;43.984;2022-08-30T07:31:42;39.13;;;20.88;;
74634;SDS011;63140;56.306;43.984;2022-08-30T07:34:08;43.47;;;22.48;;
74634;SDS011;63140;56.306;43.984;2022-08-30T07:36:35;36.97;;;20.73;;
74634;SDS011;63140;56.306;43.984;2022-08-30T07:39:03;35.75;;;20.92;;
74634;SDS011;63140;56.306;43.984;2022-08-30T07:41:31;29.70;;;18.27;;
74634;SDS011;63140;56.306;43.984;2022-08-30T07:44:00;41.25;;;21.70;;
74634;SDS011;63140;56.306;43.984;2022-08-30T07:46:26;35.57;;;19.57;;
74634;SDS011;63140;56.306;43.984;2022-08-30T07:48:52;35.40;;;19.00;;
74634;SDS011;63140;56.306;43.984;2022-08-30T07:51:20;38.97;;;20.25;;
74634;SDS011;63140;56.306;43.984;2022-08-30T07:53:47;40.50;;;17.10;;
74634;SDS011;63140;56.306;43.984;2022-08-30T07:56:13;37.83;;;18.30;;
74634;SDS011;63140;56.306;43.984;2022-08-30T07:58:40;36.72;;;17.55;;
74634;SDS011;63140;56.306;43.984;2022-08-30T08:01:07;38.75;;;19.50;;
74634;SDS011;63140;56.306;43.984;2022-08-30T08:03:34;41.78;;;19.85;;
74634;SDS011;63140;56.306;43.984;2022-08-30T08:06:02;34.20;;;17.47;;
74634;SDS011;63140;56.306;43.984;2022-08-30T08:08:47;33.47;;;16.27;;
74634;SDS011;63140;56.306;43.984;2022-08-30T08:11:15;35.35;;;17.35;;
74634;SDS011;63140;56.306;43.984;2022-08-30T08:13:44;33.42;;;17.00;;
74634;SDS011;63140;56.306;43.984;2022-08-30T08:16:11;28.85;;;16.20;;
74634;SDS011;63140;56.306;43.984;2022-08-30T08:18:37;35.85;;;17.35;;
74634;SDS011;63140;56.306;43.984;2022-08-30T08:21:03;31.98;;;15.10;;
74634;SDS011;63140;56.306;43.984;2022-08-30T08:23:29;32.67;;;16.13;;
74634;SDS011;63140;56.306;43.984;2022-08-30T08:25:55;35.40;;;17.00;;
74634;SDS011;63140;56.306;43.984;2022-08-30T08:28:22;30.43;;;16.37;;
74634;SDS011;63140;56.306;43.984;2022-08-30T08:30:48;33.17;;;15.70;;
74634;SDS011;63140;56.306;43.984;2022-08-30T08:33:14;34.30;;;14.77;;
74634;SDS011;63140;56.306;43.984;2022-08-30T08:35:41;32.42;;;15.07;;
74634;SDS011;63140;56.306;43.984;2022-08-30T08:38:07;28.00;;;14.50;;
74634;SDS011;63140;56.306;43.984;2022-08-30T08:40:45;23.92;;;12.80;;
74634;SDS011;63140;56.306;43.984;2022-08-30T08:43:27;27.63;;;13.57;;
74634;SDS011;63140;56.306;43.984;2022-08-30T08:48:44;24.80;;;9.83;;
74634;SDS011;63140;56.306;43.984;2022-08-30T08:51:15;20.50;;;8.57;;
74634;SDS011;63140;56.306;43.984;2022-08-30T08:57:00;21.13;;;10.23;;
74634;SDS011;63140;56.306;43.984;2022-08-30T09:03:13;25.40;;;9.60;;
74634;SDS011;63140;56.306;43.984;2022-08-30T09:05:40;21.45;;;8.98;;
74634;SDS011;63140;56.306;43.984;2022-08-30T09:08:10;26.90;;;11.30;;
74634;SDS011;63140;56.306;43.984;2022-08-30T09:10:39;26.80;;;9.20;;
74634;SDS011;63140;56.306;43.984;2022-08-30T09:13:08;22.80;;;8.90;;
74634;SDS011;63140;56.306;43.984;2022-08-30T09:15:34;21.47;;;8.20;;
74634;SDS011;63140;56.306;43.984;2022-08-30T09:18:03;23.17;;;8.57;;
74634;SDS011;63140;56.306;43.984;2022-08-30T09:23:13;25.80;;;10.70;;
74634;SDS011;63140;56.306;43.984;2022-08-30T09:25:54;25.13;;;8.57;;
74634;SDS011;63140;56.306;43.984;2022-08-30T09:28:31;18.03;;;9.20;;
74634;SDS011;63140;56.306;43.984;2022-08-30T09:31:17;21.52;;;8.93;;
74634;SDS011;63140;56.306;43.984;2022-08-30T09:33:53;23.27;;;9.10;;
74634;SDS011;63140;56.306;43.984;2022-08-30T09:36:27;24.63;;;9.00;;
74634;SDS011;63140;56.306;43.984;2022-08-30T09:41:53;20.52;;;9.60;;
74634;SDS011;63140;56.306;43.984;2022-08-30T09:44:44;24.00;;;8.70;;
74634;SDS011;63140;56.306;43.984;2022-08-30T09:47:17;27.30;;;9.10;;
74634;SDS011;63140;56.306;43.984;2022-08-30T09:49:44;18.80;;;8.25;;
74634;SDS011;63140;56.306;43.984;2022-08-30T10:00:03;22.30;;;8.30;;
74634;SDS011;63140;56.306;43.984;2022-08-30T10:05:38;16.83;;;8.75;;
74634;SDS011;63140;56.306;43.984;2022-08-30T10:08:30;20.92;;;9.48;;
74634;SDS011;63140;56.306;43.984;2022-08-30T10:16:52;19.90;;;7.03;;
74634;SDS011;63140;56.306;43.984;2022-08-30T10:19:39;15.55;;;8.40;;
74634;SDS011;63140;56.306;43.984;2022-08-30T10:25:15;18.65;;;7.15;;
74634;SDS011;63140;56.306;43.984;2022-08-30T10:30:35;21.37;;;10.43;;
74634;SDS011;63140;56.306;43.984;2022-08-30T10:33:09;20.70;;;7.93;;
74634;SDS011;63140;56.306;43.984;2022-08-30T10:35:48;19.33;;;8.27;;
74634;SDS011;63140;56.306;43.984;2022-08-30T10:38:21;20.65;;;9.63;;
74634;SDS011;63140;56.306;43.984;2022-08-30T10:49:37;15.32;;;9.52;;
74634;SDS011;63140;56.306;43.984;2022-08-30T10:57:15;20.00;;;10.20;;
74634;SDS011;63140;56.306;43.984;2022-08-30T10:59:43;20.63;;;13.57;;
74634;SDS011;63140;56.306;43.984;2022-08-30T11:02:43;21.75;;;13.75;;
74634;SDS011;63140;56.306;43.984;2022-08-30T11:08:16;19.48;;;14.68;;
74634;SDS011;63140;56.306;43.984;2022-08-30T11:13:52;22.55;;;14.60;;
74634;SDS011;63140;56.306;43.984;2022-08-30T11:16:19;27.20;;;13.85;;
74634;SDS011;63140;56.306;43.984;2022-08-30T11:19:11;25.85;;;15.45;;
74634;SDS011;63140;56.306;43.984;2022-08-30T11:22:07;26.95;;;16.55;;
74634;SDS011;63140;56.306;43.984;2022-08-30T11:33:05;26.08;;;17.92;;
74634;SDS011;63140;56.306;43.984;2022-08-30T11:35:50;29.08;;;17.73;;
74634;SDS011;63140;56.306;43.984;2022-08-30T12:00:25;36.88;;;25.98;;
74634;SDS011;63140;56.306;43.984;2022-08-30T12:03:00;42.53;;;24.30;;
74634;SDS011;63140;56.306;43.984;2022-08-30T12:10:49;32.95;;;25.02;;
74634;SDS011;63140;56.306;43.984;2022-08-30T12:16:10;33.47;;;21.80;;
74634;SDS011;63140;56.306;43.984;2022-08-30T12:21:40;31.07;;;21.30;;
74634;SDS011;63140;56.306;43.984;2022-08-30T12:26:44;32.92;;;21.23;;
74634;SDS011;63140;56.306;43.984;2022-08-30T12:39:42;36.05;;;24.13;;
74634;SDS011;63140;56.306;43.984;2022-08-30T12:42:09;35.45;;;23.50;;
74634;SDS011;63140;56.306;43.984;2022-08-30T12:44:41;38.53;;;23.67;;
74634;SDS011;63140;56.306;43.984;2022-08-30T12:47:07;37.00;;;23.93;;
74634;SDS011;63140;56.306;43.984;2022-08-30T12:49:37;40.65;;;24.50;;
74634;SDS011;63140;56.306;43.984;2022-08-30T12:52:17;35.10;;;24.58;;
74634;SDS011;63140;56.306;43.984;2022-08-30T12:54:51;38.33;;;25.73;;
74634;SDS011;63140;56.306;43.984;2022-08-30T13:02:55;48.47;;;30.35;;
74634;SDS011;63140;56.306;43.984;2022-08-30T13:08:13;50.00;;;31.33;;
74634;SDS011;63140;56.306;43.984;2022-08-30T13:13:24;55.17;;;32.97;;
74634;SDS011;63140;56.306;43.984;2022-08-30T13:15:56;56.97;;;33.28;;
74634;SDS011;63140;56.306;43.984;2022-08-30T13:18:32;55.03;;;35.30;;
74634;SDS011;63140;56.306;43.984;2022-08-30T13:21:17;59.53;;;36.63;;
74634;SDS011;63140;56.306;43.984;2022-08-30T13:23:44;67.75;;;41.58;;
74634;SDS011;63140;56.306;43.984;2022-08-30T13:26:10;73.25;;;41.03;;
74634;SDS011;63140;56.306;43.984;2022-08-30T13:28:52;71.55;;;42.45;;
74634;SDS011;63140;56.306;43.984;2022-08-30T13:31:20;79.47;;;45.10;;
74634;SDS011;63140;56.306;43.984;2022-08-30T13:33:46;73.80;;;43.17;;
74634;SDS011;63140;56.306;43.984;2022-08-30T13:36:17;73.97;;;45.30;;
74634;SDS011;63140;56.306;43.984;2022-08-30T13:38:46;80.75;;;44.50;;
74634;SDS011;63140;56.306;43.984;2022-08-30T13:41:14;80.32;;;46.90;;
74634;SDS011;63140;56.306;43.984;2022-08-30T13:43:41;87.47;;;48.22;;
74634;SDS011;63140;56.306;43.984;2022-08-30T13:46:07;84.05;;;45.47;;
74634;SDS011;63140;56.306;43.984;2022-08-30T13:48:35;81.07;;;44.43;;
74634;SDS011;63140;56.306;43.984;2022-08-30T13:51:01;93.77;;;51.07;;
74634;SDS011;63140;56.306;43.984;2022-08-30T13:53:26;89.82;;;53.33;;
74634;SDS011;63140;56.306;43.984;2022-08-30T13:55:52;86.50;;;47.80;;
74634;SDS011;63140;56.306;43.984;2022-08-30T13:58:18;86.90;;;45.13;;
74634;SDS011;63140;56.306;43.984;2022-08-30T14:00:44;39.77;;;16.17;;
74634;SDS011;63140;56.306;43.984;2022-08-30T14:03:12;29.83;;;15.43;;
74634;SDS011;63140;56.306;43.984;2022-08-30T14:05:38;39.05;;;21.80;;
74634;SDS011;63140;56.306;43.984;2022-08-30T14:08:05;33.55;;;19.95;;
74634;SDS011;63140;56.306;43.984;2022-08-30T14:10:33;35.63;;;21.85;;
74634;SDS011;63140;56.306;43.984;2022-08-30T14:13:00;61.25;;;34.80;;
74634;SDS011;63140;56.306;43.984;2022-08-30T14:15:26;45.03;;;25.90;;
74634;SDS011;63140;56.306;43.984;2022-08-30T14:17:52;69.20;;;40.33;;
74634;SDS011;63140;56.306;43.984;2022-08-30T14:20:18;35.58;;;23.55;;
74634;SDS011;63140;56.306;43.984;2022-08-30T14:22:45;35.75;;;23.58;;
74634;SDS011;63140;56.306;43.984;2022-08-30T14:25:11;38.47;;;24.15;;
74634;SDS011;63140;56.306;43.984;2022-08-30T14:27:36;47.85;;;31.33;;
74634;SDS011;63140;56.306;43.984;2022-08-30T14:30:03;36.37;;;22.10;;
74634;SDS011;63140;56.306;43.984;2022-08-30T14:32:30;44.38;;;27.58;;
74634;SDS011;63140;56.306;43.984;2022-08-30T14:34:56;35.45;;;22.27;;
74634;SDS011;63140;56.306;43.984;2022-08-30T14:37:22;34.13;;;20.48;;
74634;SDS011;63140;56.306;43.984;2022-08-30T14:39:48;32.83;;;21.60;;
74634;SDS011;63140;56.306;43.984;2022-08-30T14:42:14;29.27;;;19.03;;
74634;SDS011;63140;56.306;43.984;2022-08-30T14:44:40;32.90;;;21.48;;
74634;SDS011;63140;56.306;43.984;2022-08-30T14:47:06;32.60;;;21.80;;
74634;SDS011;63140;56.306;43.984;2022-08-30T14:49:33;36.95;;;23.13;;
74634;SDS011;63140;56.306;43.984;2022-08-30T14:51:59;31.75;;;21.00;;
74634;SDS011;63140;56.306;43.984;2022-08-30T14:54:26;33.53;;;20.97;;
74634;SDS011;63140;56.306;43.984;2022-08-30T14:56:53;37.80;;;22.65;;
74634;SDS011;63140;56.306;43.984;2022-08-30T14:59:19;36.15;;;22.85;;
74634;SDS011;63140;56.306;43.984;2022-08-30T15:01:46;39.80;;;25.83;;
74634;SDS011;63140;56.306;43.984;2022-08-30T15:04:12;38.70;;;24.63;;
74634;SDS011;63140;56.306;43.984;2022-08-30T15:06:40;50.28;;;31.45;;
74634;SDS011;63140;56.306;43.984;2022-08-30T15:09:08;39.72;;;28.83;;
74634;SDS011;63140;56.306;43.984;2022-08-30T15:11:35;45.53;;;27.83;;
74634;SDS011;63140;56.306;43.984;2022-08-30T15:14:02;58.90;;;36.80;;
74634;SDS011;63140;56.306;43.984;2022-08-30T15:16:30;43.90;;;30.58;;
74634;SDS011;63140;56.306;43.984;2022-08-30T15:18:59;48.95;;;30.80;;
74634;SDS011;63140;56.306;43.984;2022-08-30T15:21:26;53.85;;;33.60;;
74634;SDS011;63140;56.306;43.984;2022-08-30T15:23:57;44.40;;;26.88;;
74634;SDS011;63140;56.306;43.984;2022-08-30T15:26:24;52.00;;;30.17;;
74634;SDS011;63140;56.306;43.984;2022-08-30T15:28:50;46.13;;;30.40;;
74634;SDS011;63140;56.306;43.984;2022-08-30T15:31:17;43.13;;;27.33;;
74634;SDS011;63140;56.306;43.984;2022-08-30T15:33:44;46.17;;;30.00;;
74634;SDS011;63140;56.306;43.984;2022-08-30T15:36:10;44.87;;;27.97;;
74634;SDS011;63140;56.306;43.984;2022-08-30T15:38:36;38.25;;;28.02;;
74634;SDS011;63140;56.306;43.984;2022-08-30T15:41:04;44.05;;;29.45;;
74634;SDS011;63140;56.306;43.984;2022-08-30T15:43:31;44.33;;;27.52;;
74634;SDS011;63140;56.306;43.984;2022-08-30T15:46:09;44.05;;;29.08;;
74634;SDS011;63140;56.306;43.984;2022-08-30T15:48:41;44.55;;;27.27;;
74634;SDS011;63140;56.306;43.984;2022-08-30T15:51:07;50.95;;;30.63;;
74634;SDS011;63140;56.306;43.984;2022-08-30T15:53:33;45.20;;;25.97;;
74634;SDS011;63140;56.306;43.984;2022-08-30T15:55:59;40.05;;;25.98;;
74634;SDS011;63140;56.306;43.984;2022-08-30T15:58:25;45.70;;;30.00;;
74634;SDS011;63140;56.306;43.984;2022-08-30T16:00:52;41.00;;;26.35;;
74634;SDS011;63140;56.306;43.984;2022-08-30T16:03:17;44.35;;;29.35;;
74634;SDS011;63140;56.306;43.984;2022-08-30T16:05:43;43.87;;;27.17;;
74634;SDS011;63140;56.306;43.984;2022-08-30T16:08:09;43.78;;;28.77;;
74634;SDS011;63140;56.306;43.984;2022-08-30T16:10:37;52.28;;;30.60;;
74634;SDS011;63140;56.306;43.984;2022-08-30T16:13:04;45.75;;;29.33;;
74634;SDS011;63140;56.306;43.984;2022-08-30T16:15:30;46.95;;;30.45;;
74634;SDS011;63140;56.306;43.984;2022-08-30T16:17:57;44.93;;;30.03;;
74634;SDS011;63140;56.306;43.984;2022-08-30T16:20:23;47.38;;;30.10;;
74634;SDS011;63140;56.306;43.984;2022-08-30T16:22:49;51.92;;;31.17;;
74634;SDS011;63140;56.306;43.984;2022-08-30T16:25:15;51.57;;;31.77;;
74634;SDS011;63140;56.306;43.984;2022-08-30T16:27:41;47.85;;;30.05;;
74634;SDS011;63140;56.306;43.984;2022-08-30T16:30:09;46.10;;;29.35;;